Historyczne dane pomiarowe

Dodano dane terminowe – wersja testowa.

Dane z okresu 1951-2019

Wersja bazy: 1.34 [2019-03-16, lista zmian], aktualizacja planowana na 2019-04-15

Dane meteo z obszaru Polski uzyskane na podstawie danych udostępnionych przez Instytut Meteorologii i Gospodarki Wodnej – Państwowy Instytut Badawczy.

 

Wybierz Datę:    

       

TemperaturaWilgotnośćWiatrCiśnienieOpadyŚniegCzas trwania zjawisk
 Stacja t tx tn tng RH VA  wxwx mslp ppp RRR   cm mm wxwxwxwxwxwxwx
1983-08-14 14.9 19.0 9.1 8.9 67.8- 3.0 3.0---- 0.0------------
1983-08-13 14.9 22.1 11.8 10.3 85.0- 6.0 3.7---- 3.8------------
1983-08-12 20.9 27.0 15.8 15.5 69.3- 4.0 2.3---- 1.3------------
1983-08-11 19.1 24.4 14.2 13.3 82.0- 8.0 2.7---- 1.0------------
1983-08-10 19.3 26.0 12.5 11.3 78.0- 3.0 2.3---- 0.3------------
1983-08-09 20.8 26.5 14.6 13.3 71.3- 3.0 2.7---- 0.0------------
1983-08-08 20.3 26.2 13.9 13.9 74.5- 5.7 3.0---- 0.0------------
1983-08-07 20.0 26.5 14.5 14.9 81.0- 7.0 2.7---- 3.0------------
1983-08-06 16.4 22.5 7.9 6.9 72.0- 4.3 0.7---- 6.4------------
1983-08-05 13.9 17.6 9.9 10.8 85.0- 8.0 2.0---- 0.0------------
1983-08-04 15.0 23.1 11.1 13.9 86.3- 8.0 2.3---- 12.0------------
1983-08-03 21.9 28.5 15.3 14.7 72.5- 5.0 4.7---- 0.0------------
1983-08-02 21.4 28.6 11.8 9.8 64.8- 3.0 2.7---- 0.0------------
1983-08-01 19.1 26.5 8.3 12.2 65.0- 0.0 3.3---- 0.0------------
1983-07-31 18.0 23.9 10.6 9.6 66.0- 3.0 2.0---- 0.0------------
1983-07-30 17.1 20.9 14.8 13.1 75.8- 7.7 4.3---- 0.0------------
1983-07-29 18.9 24.0 13.1 12.8 70.8- 3.7 2.3---- 0.0------------
1983-07-28 21.8 26.4 16.4 16.6 75.3- 3.7 1.7---- 0.0------------
1983-07-27 22.5 29.5 15.3 13.9 64.5- 0.0 1.7---- 2.6------------
1983-07-26 19.5 27.0 12.9 12.3 76.5- 4.7 3.7---- 0.0------------
1983-07-25 15.1 18.8 7.8 10.6 78.3- 7.0 3.0---- 0.6------------
1983-07-24 14.9 18.4 8.3 8.7 83.8- 5.3 0.7---- 0.0------------
1983-07-23 15.0 19.9 9.9 9.1 78.0- 6.3 2.7---- 0.0------------
1983-07-22 14.2 17.3 9.3 8.3 70.5- 5.7 3.3---- 2.5------------
1983-07-21 12.4 17.4 7.9 7.6 75.0- 7.3 5.7---- 0.0------------
1983-07-20 15.8 24.1 13.1 14.9 81.8- 7.7 3.3---- 7.7------------
1983-07-19 21.6 27.5 13.3 11.1 66.5- 3.7 2.7---- 3.6------------
1983-07-18 20.0 27.4 8.1 11.9 62.3- 2.0 0.7---- 0.0------------
1983-07-17 20.2 24.0 14.5 12.7 60.3- 3.3 1.7---- 0.0------------
1983-07-16 21.0 28.4 13.9 11.5 64.5- 3.7 2.0---- 0.0------------
1983-07-15 18.8 24.1 11.6 10.3 65.5- 0.0 1.7---- 0.0------------
1983-07-14 19.1 24.1 15.2 13.7 90.5- 7.3 2.7---- 5.5------------
1983-07-13 19.4 26.1 13.9 12.8 79.0- 7.3 0.7---- 0.2------------
1983-07-12 19.3 24.3 14.7 14.8 77.0- 5.3 2.0---- 0.0------------
1983-07-11 20.6 27.5 15.4 13.9 75.3- 5.7 3.7---- 43.8------------
1983-07-10 22.6 28.3 14.0 11.4 58.0- 1.7 2.7---- 0.0------------
1983-07-09 21.9 27.7 12.5 10.2 58.3- 1.3 2.0---- 0.0------------
1983-07-08 19.7 26.5 9.0 5.7 60.3- 0.0 2.0---- 0.0------------
1983-07-07 20.1 26.2 9.2 5.9 55.3- 0.0 3.0---- 0.0------------
1983-07-06 20.4 27.1 8.5 5.6 59.8- 0.0 2.0---- 0.0------------
1983-07-05 19.3 24.2 11.4 9.3 64.5- 0.0 3.0---- 0.0------------
1983-07-04 19.4 26.2 7.6 4.7 60.3- 1.0 0.7---- 0.0------------
1983-07-03 18.5 23.5 9.3 6.4 58.5- 0.7 2.3---- 0.0------------
1983-07-02 19.0 24.7 12.9 11.9 77.5- 5.7 3.3---- 0.0------------
1983-07-01 20.4 26.5 11.6 7.9 68.3- 2.0 2.7---- 0.0------------
1983-06-30 16.5 23.4 4.5 3.0 66.0- 0.7 0.0---- 0.0------------
1983-06-29 14.5 19.1 8.0 5.0 65.8- 1.3 2.3---- 0.0------------
1983-06-28 17.0 20.0 13.8 12.8 86.3- 8.0 3.3---- 6.5------------
1983-06-27 19.7 27.8 9.9 7.1 78.0- 2.7 1.7---- 2.1------------
1983-06-26 20.6 24.9 14.6 13.4 63.5- 0.0 0.0---- 0.0------------
1983-06-25 21.1 28.8 9.2 5.9 57.5- 1.7 1.3---- 0.3------------
1983-06-24 17.9 26.3 4.1 2.0 55.5- 0.0 1.3---- 0.0------------
1983-06-23 13.8 20.7 3.2 0.0 61.5- 0.0 1.7---- 0.0------------
1983-06-22 12.9 19.3 5.6 3.3 58.0- 0.0 3.3---- 0.0------------
1983-06-21 18.0 23.9 11.0 9.4 63.3- 1.7 5.3---- 0.0------------
1983-06-20 19.2 23.8 13.1 13.3 72.3- 4.7 4.0---- 0.0------------
1983-06-19 17.1 21.4 13.2 13.2 87.8- 8.0 5.3---- 0.0------------
1983-06-18 14.5 17.0 10.2 10.3 84.3- 8.0 6.7---- 2.0------------
1983-06-17 13.2 17.8 6.4 4.2 75.8- 7.3 4.7---- 0.5------------
1983-06-16 13.1 15.3 9.5 10.2 83.5- 6.3 5.3---- 1.0------------
1196.0 ms

 

Źródłem pochodzenia danych jest Instytut Meteorologii i Gospodarki Wodnej – Państwowy Instytut Badawczy. Dane Instytutu Meteorologii i Gospodarki Wodnej – Państwowego Instytutu Badawczego zostały przetworzone.

Dane źródłowe można odnaleźć na stronie https://dane.imgw.pl